Time;durP1;ratioP1;P1;durP2;ratioP2;P2;SDS_P1;SDS_P2;PMS_P1;PMS_P2;Temp;Humidity;BMP_temperature;BMP_pressure;BME280_temperature;BME280_humidity;BME280_pressure;Samples;Min_cycle;Max_cycle;Signal;HPM_P1;HPM_P2
2022/04/02 00:03:20;;;;;;;;;;;;;;;21.96;26.58;94014.59;10555236;27;1861;-56
2022/04/02 00:08:21;;;;;;;;;;;;;;;21.96;26.47;94014.59;10563821;27;1956;-56
2022/04/02 00:13:22;;;;;;;;;;;;;;;21.95;26.89;94017.56;10560484;27;2055;-55
2022/04/02 00:18:22;;;;;;;;;;;;;;;21.92;27.00;94007.66;10549273;27;2406;-57
2022/04/02 00:23:40;;;;;;;;;;;;;;;21.92;27.02;94008.44;10553857;28;1829;-54
2022/04/02 00:28:41;;;;;;;;;;;;;;;21.94;26.85;94005.47;10562132;28;1869;-55
2022/04/02 00:33:43;;;;;;;;;;;;;;;21.94;26.91;94000.19;10552533;28;1936;-56
2022/04/02 00:38:43;;;;;;;;;;;;;;;21.95;26.90;94001.75;10557939;28;1974;-57
2022/04/02 00:43:54;;;;;;;;;;;;;;;21.94;27.28;94002.81;10557552;27;2275;-57
2022/04/02 00:48:55;;;;;;;;;;;;;;;21.97;26.97;94000.31;10558156;27;1955;-54
2022/04/02 00:53:55;;;;;;;;;;;;;;;21.98;26.90;93998.44;10554744;28;2281;-54
2022/04/02 00:58:55;;;;;;;;;;;;;;;21.98;26.91;94007.13;10557133;27;1894;-54
2022/04/02 01:03:59;;;;;;;;;;;;;;;22.01;27.09;94008.38;10550062;28;1781;-57
2022/04/02 01:09:03;;;;;;;;;;;;;;;22.00;26.88;94002.31;10553808;28;2154;-55
2022/04/02 01:14:03;;;;;;;;;;;;;;;22.01;26.68;94005.72;10555746;28;2171;-56
2022/04/02 01:19:05;;;;;;;;;;;;;;;21.99;26.09;94013.94;10557573;28;1928;-57
2022/04/02 01:24:05;;;;;;;;;;;;;;;21.98;26.47;94012.41;10560793;27;1898;-57
2022/04/02 01:29:06;;;;;;;;;;;;;;;21.98;26.74;94022.97;10556799;28;1861;-54
2022/04/02 01:34:07;;;;;;;;;;;;;;;21.96;26.70;94022.53;10553695;28;2414;-55
2022/04/02 01:39:07;;;;;;;;;;;;;;;21.96;26.59;94032.28;10555971;28;1913;-57
2022/04/02 01:44:07;;;;;;;;;;;;;;;21.93;26.87;94028.44;10557436;28;2394;-57
2022/04/02 01:49:08;;;;;;;;;;;;;;;21.94;26.64;94026.56;10551806;28;1958;-56
2022/04/02 01:54:08;;;;;;;;;;;;;;;21.96;27.11;94032.28;10552789;28;1819;-56
2022/04/02 01:59:08;;;;;;;;;;;;;;;21.93;26.67;94035.59;10555563;28;1914;-56
2022/04/02 02:04:08;;;;;;;;;;;;;;;21.93;26.35;94041.63;10552728;28;2213;-57
2022/04/02 02:09:09;;;;;;;;;;;;;;;21.93;26.80;94041.63;10553563;28;1851;-56
2022/04/02 02:14:09;;;;;;;;;;;;;;;21.94;26.15;94042.41;10556986;28;1870;-57
2022/04/02 02:19:10;;;;;;;;;;;;;;;21.94;26.65;94050.31;10556199;28;1953;-57
2022/04/02 02:24:10;;;;;;;;;;;;;;;21.94;26.49;94048.44;10541356;28;1844;-55
2022/04/02 02:29:11;;;;;;;;;;;;;;;21.93;26.76;94046.88;10548907;28;1801;-57
2022/04/02 02:39:30;;;;;;;;;;;;;;;21.94;27.03;94048.44;10558161;28;1965;-56
2022/04/02 02:44:31;;;;;;;;;;;;;;;21.94;26.71;94056.38;10565758;28;2108;-55
2022/04/02 02:49:31;;;;;;;;;;;;;;;21.93;26.47;94046.13;10556415;27;1848;-55
2022/04/02 02:54:32;;;;;;;;;;;;;;;21.93;26.62;94054.81;10558305;27;1805;-54
2022/04/02 02:59:33;;;;;;;;;;;;;;;21.93;26.77;94054.81;10566210;27;1992;-55
2022/04/02 03:04:33;;;;;;;;;;;;;;;21.88;26.41;94053.13;10566694;27;2029;-55
2022/04/02 03:09:34;;;;;;;;;;;;;;;21.92;26.22;94063.06;10551118;28;1879;-55
2022/04/02 03:14:36;;;;;;;;;;;;;;;21.90;26.09;94052.81;10562862;27;1977;-57
2022/04/02 03:19:36;;;;;;;;;;;;;;;21.88;26.25;94063.69;10559099;28;1935;-57
2022/04/02 03:24:37;;;;;;;;;;;;;;;21.88;26.02;94065.56;10552814;27;1889;-56
2022/04/02 03:29:37;;;;;;;;;;;;;;;21.89;25.83;94067.09;10557470;28;1847;-55
2022/04/02 03:34:37;;;;;;;;;;;;;;;21.89;26.29;94075.00;10556934;27;2094;-57
2022/04/02 03:39:38;;;;;;;;;;;;;;;21.88;25.92;94070.06;10558471;27;1905;-57
2022/04/02 03:44:38;;;;;;;;;;;;;;;21.84;26.13;94069.94;10550693;27;2095;-56
2022/04/02 03:49:39;;;;;;;;;;;;;;;21.85;25.86;94079.38;10559978;28;1702;-55
2022/04/02 03:54:40;;;;;;;;;;;;;;;21.84;25.78;94083.13;10543931;28;1953;-57
2022/04/02 03:59:40;;;;;;;;;;;;;;;21.83;25.85;94087.63;10554723;27;1897;-54
2022/04/02 04:04:41;;;;;;;;;;;;;;;21.80;25.65;94095.38;10551171;28;1812;-56
2022/04/02 04:09:41;;;;;;;;;;;;;;;21.85;25.93;94098.63;10563520;27;1978;-56
2022/04/02 04:14:41;;;;;;;;;;;;;;;21.85;25.89;94114.47;10553536;28;1841;-57
2022/04/02 04:19:42;;;;;;;;;;;;;;;21.81;25.71;94112.75;10551984;28;1906;-57
2022/04/02 04:24:42;;;;;;;;;;;;;;;21.86;25.59;94115.25;10556911;27;1987;-57
2022/04/02 04:29:44;;;;;;;;;;;;;;;21.85;25.85;94124.22;10551118;27;1722;-56
2022/04/02 04:34:44;;;;;;;;;;;;;;;21.83;25.97;94129.84;10551875;28;1884;-57
2022/04/02 04:39:44;;;;;;;;;;;;;;;21.89;26.10;94127.78;10547484;28;2028;-54
2022/04/02 04:44:45;;;;;;;;;;;;;;;21.80;25.84;94133.06;10553462;28;1976;-57
2022/04/02 04:49:45;;;;;;;;;;;;;;;21.79;25.72;94136.81;10564981;22;2345;-51
2022/04/02 04:54:46;;;;;;;;;;;;;;;21.82;26.02;94140.72;10500206;28;1780;-50
2022/04/02 04:59:46;;;;;;;;;;;;;;;21.82;26.02;94151.25;10523169;28;1953;-48
2022/04/02 05:04:47;;;;;;;;;;;;;;;21.83;25.92;94158.06;10512069;28;2309;-48
2022/04/02 05:09:47;;;;;;;;;;;;;;;21.83;26.10;94165.97;10497434;28;1798;-48
2022/04/02 05:14:49;;;;;;;;;;;;;;;21.81;25.90;94174.22;10492610;28;1806;-52
2022/04/02 05:19:49;;;;;;;;;;;;;;;21.79;26.07;94175.59;10509391;28;1906;-52
2022/04/02 05:24:50;;;;;;;;;;;;;;;21.76;25.62;94184.91;10473677;28;1893;-50
2022/04/02 05:29:50;;;;;;;;;;;;;;;21.77;25.47;94178.56;10512693;28;1929;-54
2022/04/02 05:34:51;;;;;;;;;;;;;;;21.84;26.12;94191.28;10502030;28;2102;-53
2022/04/02 05:39:52;;;;;;;;;;;;;;;21.76;26.04;94199.97;10510191;28;1980;-53
2022/04/02 05:44:54;;;;;;;;;;;;;;;21.77;25.95;94207.56;10500344;28;1790;-53
2022/04/02 05:49:55;;;;;;;;;;;;;;;21.79;25.80;94215.16;10506471;28;1819;-52
2022/04/02 05:54:55;;;;;;;;;;;;;;;21.74;25.72;94218.75;10488093;28;1803;-51
2022/04/02 05:59:56;;;;;;;;;;;;;;;21.79;25.78;94225.69;10506761;28;1911;-50
2022/04/02 06:04:56;;;;;;;;;;;;;;;21.77;25.68;94225.25;10509612;28;2038;-50
2022/04/02 06:09:56;;;;;;;;;;;;;;;21.74;25.82;94236.44;10493525;28;1982;-54
2022/04/02 06:14:57;;;;;;;;;;;;;;;21.80;26.23;94243.09;10497037;28;1815;-51
2022/04/02 06:19:57;;;;;;;;;;;;;;;21.79;26.08;94247.59;10498822;28;2226;-50
2022/04/02 06:24:58;;;;;;;;;;;;;;;21.76;25.90;94248.19;10512449;28;1904;-51
2022/04/02 06:29:58;;;;;;;;;;;;;;;21.78;25.99;94256.56;10496264;28;2048;-48
2022/04/02 06:34:59;;;;;;;;;;;;;;;21.75;25.87;94267.00;10510758;28;1791;-49
2022/04/02 06:39:59;;;;;;;;;;;;;;;21.75;25.96;94277.53;10516638;28;1934;-53
2022/04/02 06:44:59;;;;;;;;;;;;;;;21.73;25.75;94277.09;10491906;28;1814;-48
2022/04/02 06:50:03;;;;;;;;;;;;;;;21.81;26.38;94284.19;10512917;28;1819;-49
2022/04/02 06:55:04;;;;;;;;;;;;;;;21.81;26.36;94297.38;10516251;28;1999;-51
2022/04/02 07:00:05;;;;;;;;;;;;;;;21.86;27.08;94297.25;10499332;28;1910;-48
2022/04/02 07:05:06;;;;;;;;;;;;;;;21.86;26.95;94305.16;10511370;28;1803;-54
2022/04/02 07:10:07;;;;;;;;;;;;;;;21.84;26.65;94312.63;10513744;28;2016;-50
2022/04/02 07:15:07;;;;;;;;;;;;;;;21.80;26.81;94322.97;10511519;28;1905;-53
2022/04/02 07:20:08;;;;;;;;;;;;;;;21.76;26.64;94321.31;10496547;28;1894;-50
2022/04/02 07:25:08;;;;;;;;;;;;;;;21.73;26.41;94327.19;10494231;28;2028;-51
2022/04/02 07:30:10;;;;;;;;;;;;;;;21.71;26.77;94334.66;10483341;28;1774;-54
2022/04/02 07:35:11;;;;;;;;;;;;;;;21.68;26.74;94340.53;10517267;28;1885;-52
2022/04/02 07:40:16;;;;;;;;;;;;;;;21.70;26.03;94346.31;10495039;28;1910;-52
2022/04/02 07:45:26;;;;;;;;;;;;;;;21.74;26.86;94352.50;10468445;28;1811;-48
2022/04/02 07:50:27;;;;;;;;;;;;;;;21.69;26.41;94355.28;10475160;28;1968;-50
2022/04/02 07:55:29;;;;;;;;;;;;;;;21.66;26.37;94364.59;10508263;28;1888;-48
2022/04/02 08:00:29;;;;;;;;;;;;;;;21.67;26.31;94381.19;10495442;28;2024;-52
2022/04/02 08:05:29;;;;;;;;;;;;;;;21.67;26.65;94376.69;10490309;28;1791;-52
2022/04/02 08:10:29;;;;;;;;;;;;;;;21.68;26.65;94383.50;10517061;28;1827;-50
2022/04/02 08:15:30;;;;;;;;;;;;;;;21.67;27.11;94384.63;10487005;28;2107;-51
2022/04/02 08:20:30;;;;;;;;;;;;;;;21.67;26.47;94397.03;10506714;28;2006;-50
2022/04/02 08:25:30;;;;;;;;;;;;;;;21.62;26.15;94407.72;10494265;28;1791;-53
2022/04/02 08:30:31;;;;;;;;;;;;;;;21.66;26.56;94411.28;10505964;28;1897;-52
2022/04/02 08:35:51;;;;;;;;;;;;;;;21.65;26.42;94420.28;10512012;28;1887;-46
2022/04/02 08:40:57;;;;;;;;;;;;;;;21.68;26.68;94425.72;10501839;28;1963;-49
2022/04/02 08:46:03;;;;;;;;;;;;;;;21.65;25.93;94428.19;10491116;28;1755;-53
2022/04/02 08:51:30;;;;;;;;;;;;;;;21.65;25.50;94433.47;10491936;28;1980;-55
2022/04/02 08:56:31;;;;;;;;;;;;;;;21.62;25.73;94453.31;10484107;28;1814;-53
2022/04/02 09:01:31;;;;;;;;;;;;;;;21.70;26.11;94459.72;10502770;28;2279;-51
2022/04/02 09:06:36;;;;;;;;;;;;;;;21.74;26.32;94465.91;10507721;28;1980;-49
2022/04/02 09:11:45;;;;;;;;;;;;;;;21.72;25.98;94468.09;10488441;28;1873;-52
2022/04/02 09:17:06;;;;;;;;;;;;;;;21.72;26.10;94478.63;10510145;28;2008;-54
2022/04/02 09:22:07;;;;;;;;;;;;;;;21.78;27.44;94483.41;10452529;28;1898;-54
2022/04/02 09:27:14;;;;;;;;;;;;;;;21.70;27.40;94483.44;10476095;28;2036;-53
2022/04/02 09:32:15;;;;;;;;;;;;;;;21.68;26.90;94493.50;10491658;28;1811;-50
2022/04/02 09:37:28;;;;;;;;;;;;;;;21.66;27.46;94500.94;10492749;28;1866;-52
2022/04/02 09:42:30;;;;;;;;;;;;;;;21.69;27.33;94500.34;10499863;28;1973;-52
2022/04/02 09:47:37;;;;;;;;;;;;;;;21.68;27.24;94499.56;10518603;28;1949;-52
2022/04/02 09:52:38;;;;;;;;;;;;;;;21.69;27.28;94500.34;10507047;28;1841;-51
2022/04/02 09:57:39;;;;;;;;;;;;;;;21.69;27.06;94513.53;10500403;28;1972;-50
2022/04/02 10:02:44;;;;;;;;;;;;;;;21.68;26.82;94512.75;10499599;28;1910;-50
2022/04/02 10:08:00;;;;;;;;;;;;;;;21.70;26.94;94517.72;10486836;28;1867;-50
2022/04/02 10:13:00;;;;;;;;;;;;;;;21.67;26.83;94529.66;10510824;28;1822;-50
2022/04/02 10:18:02;;;;;;;;;;;;;;;21.69;26.83;94524.84;10496785;28;1803;-50
2022/04/02 10:23:12;;;;;;;;;;;;;;;21.73;26.64;94533.69;10512447;28;1906;-52
2022/04/02 10:28:13;;;;;;;;;;;;;;;21.69;26.74;94542.53;10501530;28;2012;-50
2022/04/02 10:33:26;;;;;;;;;;;;;;;21.72;26.61;94547.22;10502677;28;2004;-52
2022/04/02 10:38:36;;;;;;;;;;;;;;;21.74;26.67;94552.94;10504370;28;1909;-51
2022/04/02 10:43:43;;;;;;;;;;;;;;;21.75;26.64;94552.63;10493483;28;1903;-49
2022/04/02 10:48:54;;;;;;;;;;;;;;;21.74;26.51;94558.97;10496505;28;2011;-51
2022/04/02 10:54:01;;;;;;;;;;;;;;;21.78;26.54;94567.06;10496831;28;1900;-51
2022/04/02 10:59:03;;;;;;;;;;;;;;;21.83;26.70;94564.28;10515611;28;1910;-50
2022/04/02 11:04:04;;;;;;;;;;;;;;;21.81;26.97;94569.88;10529275;22;3675;-54
2022/04/02 11:09:25;;;;;;;;;;;;;;;21.82;26.73;94579.34;10547351;28;1832;-55
2022/04/02 11:14:25;;;;;;;;;;;;;;;21.85;26.52;94580.59;10559040;28;1852;-54
2022/04/02 11:24:51;;;;;;;;;;;;;;;21.91;27.12;94595.19;10560891;28;1809;-56
2022/04/02 11:30:03;;;;;;;;;;;;;;;21.94;27.33;94591.16;10555223;28;2311;-56
2022/04/02 11:35:13;;;;;;;;;;;;;;;22.00;27.15;94605.75;10561400;28;1916;-55
2022/04/02 11:40:14;;;;;;;;;;;;;;;22.03;27.18;94611.16;10553544;28;2037;-55
2022/04/02 11:45:19;;;;;;;;;;;;;;;22.03;27.46;94608.53;10563524;28;1789;-53
2022/04/02 11:50:26;;;;;;;;;;;;;;;22.02;27.26;94612.28;10562616;28;1782;-51
2022/04/02 11:55:26;;;;;;;;;;;;;;;22.04;27.14;94620.66;10558049;28;1869;-54
2022/04/02 12:00:27;;;;;;;;;;;;;;;22.01;27.50;94621.25;10560284;28;1906;-53
2022/04/02 12:05:39;;;;;;;;;;;;;;;22.03;27.63;94626.25;10559834;28;1845;-54
2022/04/02 12:10:43;;;;;;;;;;;;;;;22.05;27.51;94624.84;10557364;28;1810;-56
2022/04/02 12:16:04;;;;;;;;;;;;;;;22.01;27.66;94631.06;10548520;28;2012;-55
2022/04/02 12:21:09;;;;;;;;;;;;;;;21.97;27.31;94635.41;10554520;28;1910;-55
2022/04/02 12:26:09;;;;;;;;;;;;;;;21.95;27.60;94640.22;10560689;27;1938;-56
2022/04/02 12:31:10;;;;;;;;;;;;;;;21.94;27.39;94638.66;10544238;28;1881;-55
2022/04/02 12:36:10;;;;;;;;;;;;;;;21.94;27.42;94655.25;10556017;28;2045;-53
2022/04/02 12:41:28;;;;;;;;;;;;;;;21.92;27.04;94656.66;10560844;28;1968;-55
2022/04/02 12:46:29;;;;;;;;;;;;;;;21.90;26.88;94662.25;10558800;28;1915;-55
2022/04/02 12:51:29;;;;;;;;;;;;;;;21.87;26.83;94665.47;10551305;28;2144;-55
2022/04/02 12:56:30;;;;;;;;;;;;;;;21.89;26.84;94673.88;10557281;28;1785;-55
2022/04/02 13:01:33;;;;;;;;;;;;;;;21.86;26.61;94671.84;10561429;28;1977;-55
2022/04/02 13:06:34;;;;;;;;;;;;;;;21.86;27.10;94682.41;10560346;28;1805;-56
2022/04/02 13:11:41;;;;;;;;;;;;;;;21.84;26.98;94681.94;10541226;28;1951;-57
2022/04/02 13:16:41;;;;;;;;;;;;;;;21.84;26.84;94689.84;10553782;28;1805;-57
2022/04/02 13:21:42;;;;;;;;;;;;;;;21.81;26.70;94693.88;10554216;28;1998;-55
2022/04/02 13:27:03;;;;;;;;;;;;;;;21.79;26.68;94695.22;10555185;28;1954;-56
2022/04/02 13:32:03;;;;;;;;;;;;;;;21.80;26.62;94712.63;10557556;28;1970;-56
2022/04/02 13:37:24;;;;;;;;;;;;;;;21.77;26.84;94718.50;10553604;28;1781;-54
2022/04/02 13:42:25;;;;;;;;;;;;;;;21.78;26.86;94720.06;10543841;28;1973;-55
2022/04/02 13:47:27;;;;;;;;;;;;;;;21.84;26.91;94724.16;10552566;28;2017;-53
2022/04/02 13:52:29;;;;;;;;;;;;;;;21.82;27.24;94731.59;10540177;28;1829;-56
2022/04/02 13:57:31;;;;;;;;;;;;;;;21.81;27.61;94740.53;10550895;28;1962;-53
2022/04/02 14:02:32;;;;;;;;;;;;;;;21.80;26.83;94745.03;10558651;28;1918;-54
2022/04/02 14:07:36;;;;;;;;;;;;;;;21.77;26.99;94744.88;10558854;28;1836;-56
2022/04/02 14:12:41;;;;;;;;;;;;;;;21.79;27.31;94742.72;10550705;28;2013;-56
2022/04/02 14:17:42;;;;;;;;;;;;;;;21.84;27.32;94753.16;10554828;28;1902;-57
2022/04/02 14:22:48;;;;;;;;;;;;;;;21.85;27.04;94758.13;10555714;28;1958;-56
2022/04/02 14:27:58;;;;;;;;;;;;;;;21.88;27.19;94761.25;10543798;28;1978;-57
2022/04/02 14:33:18;;;;;;;;;;;;;;;21.84;27.51;94764.47;10540683;28;2307;-52
2022/04/02 14:38:18;;;;;;;;;;;;;;;21.82;26.74;94773.78;10554851;28;1977;-55
2022/04/02 14:43:24;;;;;;;;;;;;;;;21.79;27.18;94772.50;10574311;27;1988;-57
2022/04/02 14:48:25;;;;;;;;;;;;;;;21.82;27.45;94774.56;10556942;28;2184;-53
2022/04/02 14:53:28;;;;;;;;;;;;;;;21.89;27.30;94784.66;10562020;28;1896;-51
2022/04/02 14:58:29;;;;;;;;;;;;;;;21.89;27.43;94789.94;10561038;28;1918;-47
2022/04/02 15:03:48;;;;;;;;;;;;;;;21.87;27.43;94792.13;10557566;28;1782;-55
2022/04/02 15:09:08;;;;;;;;;;;;;;;21.85;27.08;94797.69;10563634;28;2182;-53
2022/04/02 15:14:12;;;;;;;;;;;;;;;21.84;27.26;94803.28;10558296;28;1817;-59
2022/04/02 15:19:18;;;;;;;;;;;;;;;21.85;27.23;94820.66;10559019;28;2111;-53
2022/04/02 15:24:19;;;;;;;;;;;;;;;21.83;27.10;94822.81;10562564;28;1918;-50
2022/04/02 15:29:29;;;;;;;;;;;;;;;21.83;27.39;94834.16;10560920;28;2119;-54
2022/04/02 15:34:30;;;;;;;;;;;;;;;21.85;26.84;94836.50;10560260;28;2082;-50
2022/04/02 15:39:35;;;;;;;;;;;;;;;21.85;26.92;94850.47;10553790;28;1913;-53
2022/04/02 15:44:36;;;;;;;;;;;;;;;21.85;26.89;94858.38;10561800;28;1784;-53
2022/04/02 15:49:36;;;;;;;;;;;;;;;21.86;27.11;94864.44;10537391;28;1982;-50
2022/04/02 15:54:41;;;;;;;;;;;;;;;21.86;27.11;94878.38;10556498;28;1839;-55
2022/04/02 15:59:45;;;;;;;;;;;;;;;21.88;26.92;94880.75;10562138;28;1963;-54
2022/04/02 16:05:05;;;;;;;;;;;;;;;21.79;26.08;94890.44;10558391;28;1824;-55
2022/04/02 16:10:16;;;;;;;;;;;;;;;21.60;25.63;94903.81;10544862;28;2158;-55
2022/04/02 16:15:20;;;;;;;;;;;;;;;21.53;25.70;94900.03;10560349;28;1845;-55
2022/04/02 16:20:25;;;;;;;;;;;;;;;21.45;25.54;94900.75;10562117;28;1951;-52
2022/04/02 16:25:25;;;;;;;;;;;;;;;21.44;25.87;94912.38;10558590;27;1884;-56
2022/04/02 16:30:25;;;;;;;;;;;;;;;21.38;25.60;94916.19;10560403;28;2143;-56
2022/04/02 16:35:26;;;;;;;;;;;;;;;21.38;25.60;94917.00;10549236;28;1869;-53
2022/04/02 16:40:27;;;;;;;;;;;;;;;21.52;26.02;94938.03;10568829;27;1883;-58
2022/04/02 16:45:27;;;;;;;;;;;;;;;21.60;26.07;94946.00;10555249;28;1972;-48
2022/04/02 16:50:27;;;;;;;;;;;;;;;21.64;25.96;94948.81;10555288;28;1863;-54
2022/04/02 16:55:28;;;;;;;;;;;;;;;21.72;25.74;94961.31;10558473;28;1942;-57
2022/04/02 17:00:31;;;;;;;;;;;;;;;21.74;25.94;94972.34;10556179;28;2111;-61
2022/04/02 17:05:36;;;;;;;;;;;;;;;21.80;25.66;94981.69;10553366;28;1860;-56
2022/04/02 17:10:36;;;;;;;;;;;;;;;21.81;26.02;94985.88;10558458;28;1804;-57
2022/04/02 17:15:36;;;;;;;;;;;;;;;21.75;26.07;94995.78;10561520;28;1958;-62
2022/04/02 17:20:37;;;;;;;;;;;;;;;21.80;25.72;94993.00;10555583;28;2094;-60
2022/04/02 17:25:38;;;;;;;;;;;;;;;21.90;25.81;94993.91;10561130;28;1788;-60
2022/04/02 17:30:43;;;;;;;;;;;;;;;21.95;25.77;95002.47;10557569;28;1831;-51
2022/04/02 17:35:43;;;;;;;;;;;;;;;22.06;26.39;95013.56;10547111;28;1801;-58
2022/04/02 17:40:44;;;;;;;;;;;;;;;22.00;25.79;95026.09;10555661;28;1951;-56
2022/04/02 17:45:49;;;;;;;;;;;;;;;22.04;25.22;95032.34;10574856;28;1807;-58
2022/04/02 17:50:51;;;;;;;;;;;;;;;22.07;25.36;95039.66;10557967;28;1856;-58
2022/04/02 17:56:05;;;;;;;;;;;;;;;22.11;25.18;95042.50;10551359;28;1742;-53
2022/04/02 18:01:07;;;;;;;;;;;;;;;22.12;25.12;95057.22;10539060;28;1909;-55
2022/04/02 18:06:08;;;;;;;;;;;;;;;22.12;25.66;95073.06;10547227;28;1825;-50
2022/04/02 18:11:09;;;;;;;;;;;;;;;22.18;25.53;95077.94;10562214;28;1760;-45
2022/04/02 18:16:10;;;;;;;;;;;;;;;22.17;25.93;95086.16;10561465;28;1832;-51
2022/04/02 18:21:11;;;;;;;;;;;;;;;22.17;25.54;95096.72;10562282;28;1913;-59
2022/04/02 18:26:12;;;;;;;;;;;;;;;22.22;25.53;95101.88;10564748;28;1770;-58
2022/04/02 18:31:13;;;;;;;;;;;;;;;22.15;25.74;95118.16;10568795;28;1888;-59
2022/04/02 18:36:13;;;;;;;;;;;;;;;22.18;25.76;95125.47;10561706;28;1854;-55
2022/04/02 18:41:13;;;;;;;;;;;;;;;22.17;25.86;95136.31;10561089;28;1901;-56
2022/04/02 18:46:14;;;;;;;;;;;;;;;22.15;25.97;95141.91;10569453;28;1845;-59
2022/04/02 18:51:15;;;;;;;;;;;;;;;22.15;25.94;95154.31;10562081;28;1823;-60
2022/04/02 18:56:16;;;;;;;;;;;;;;;22.14;26.01;95169.38;10525253;28;1807;-58
2022/04/02 19:01:16;;;;;;;;;;;;;;;22.15;25.88;95178.88;10562625;28;1914;-61
2022/04/02 19:06:16;;;;;;;;;;;;;;;22.19;25.99;95179.84;10562585;28;1917;-59
2022/04/02 19:11:18;;;;;;;;;;;;;;;22.17;25.85;95189.91;10557661;28;1813;-59
2022/04/02 19:16:18;;;;;;;;;;;;;;;22.20;25.92;95199.06;10567005;28;1802;-52
2022/04/02 19:21:19;;;;;;;;;;;;;;;22.21;25.57;95203.28;10564723;28;1894;-49
2022/04/02 19:26:20;;;;;;;;;;;;;;;22.19;25.94;95210.72;10559759;28;1787;-55
2022/04/02 19:31:21;;;;;;;;;;;;;;;22.18;25.94;95214.41;10561792;28;1777;-58
2022/04/02 19:36:22;;;;;;;;;;;;;;;22.15;26.07;95220.31;10561480;28;1855;-57
2022/04/02 19:41:22;;;;;;;;;;;;;;;22.14;26.13;95224.81;10557533;28;2025;-53
2022/04/02 19:46:23;;;;;;;;;;;;;;;22.17;25.85;95231.34;10564865;28;1813;-58
2022/04/02 19:51:24;;;;;;;;;;;;;;;22.20;25.39;95234.19;10562057;28;2152;-49
2022/04/02 19:56:24;;;;;;;;;;;;;;;22.20;25.78;95236.03;10562450;28;1829;-57
2022/04/02 20:01:24;;;;;;;;;;;;;;;22.18;25.44;95241.59;10559978;28;2060;-56
2022/04/02 20:06:25;;;;;;;;;;;;;;;22.22;26.02;95241.78;10554772;28;1815;-56
2022/04/02 20:11:25;;;;;;;;;;;;;;;22.23;25.50;95241.53;10560301;22;2547;-72
2022/04/02 20:16:26;;;;;;;;;;;;;;;22.20;25.61;95246.59;10505921;28;1404;-71
2022/04/02 20:21:26;;;;;;;;;;;;;;;22.17;25.83;95249.84;10515980;28;1950;-69
2022/04/02 20:26:27;;;;;;;;;;;;;;;22.07;25.49;95240.25;10452817;28;1472;-70
2022/04/02 20:31:28;;;;;;;;;;;;;;;21.92;24.98;95251.13;10514885;28;1471;-71
2022/04/02 20:36:29;;;;;;;;;;;;;;;21.91;25.05;95251.41;10473893;28;1863;-69
2022/04/02 20:41:30;;;;;;;;;;;;;;;21.85;25.48;95253.34;10492428;28;1977;-70
2022/04/02 20:46:31;;;;;;;;;;;;;;;21.74;25.19;95252.72;10490079;28;1483;-70
2022/04/02 20:51:33;;;;;;;;;;;;;;;21.89;25.72;95262.25;10500080;28;1545;-71
2022/04/02 20:56:33;;;;;;;;;;;;;;;22.03;26.15;95262.25;10515825;28;1418;-71
2022/04/02 21:01:34;;;;;;;;;;;;;;;22.11;26.51;95267.63;10490593;28;1956;-74
2022/04/02 21:06:34;;;;;;;;;;;;;;;22.06;26.86;95272.22;10496349;28;1657;-73
2022/04/02 21:11:34;;;;;;;;;;;;;;;22.06;27.10;95275.66;10454391;28;1549;-73
2022/04/02 21:16:35;;;;;;;;;;;;;;;22.12;26.67;95271.81;10489082;28;1430;-73
2022/04/02 21:21:36;;;;;;;;;;;;;;;22.08;27.22;95273.50;10501639;28;1979;-74
2022/04/02 21:26:36;;;;;;;;;;;;;;;22.16;27.02;95286.00;10494265;28;1512;-73
2022/04/02 21:31:37;;;;;;;;;;;;;;;22.15;27.13;95289.72;10507193;28;1418;-73
2022/04/02 21:36:37;;;;;;;;;;;;;;;22.17;26.92;95292.84;10498268;28;1529;-73
2022/04/02 21:41:38;;;;;;;;;;;;;;;22.17;27.07;95289.44;10515512;28;1972;-74
2022/04/02 21:46:38;;;;;;;;;;;;;;;22.17;26.86;95292.84;10486510;28;1552;-73
2022/04/02 21:51:38;;;;;;;;;;;;;;;22.18;26.36;95289.13;10486721;28;1450;-72
2022/04/02 21:56:39;;;;;;;;;;;;;;;22.19;26.58;95293.34;10496074;28;1466;-72
2022/04/02 22:01:40;;;;;;;;;;;;;;;22.16;26.45;95290.50;10487254;28;1972;-73
2022/04/02 22:06:41;;;;;;;;;;;;;;;22.12;26.76;95300.88;10456797;28;1552;-73
2022/04/02 22:11:41;;;;;;;;;;;;;;;22.12;26.67;95295.59;10505558;28;1448;-74
2022/04/02 22:16:42;;;;;;;;;;;;;;;22.08;26.71;95297.25;10486236;28;1478;-73
2022/04/02 22:21:44;;;;;;;;;;;;;;;22.13;26.18;95302.44;10503236;28;1910;-72
2022/04/02 22:26:44;;;;;;;;;;;;;;;22.15;26.24;95304.78;10484698;28;1397;-73
2022/04/02 22:31:46;;;;;;;;;;;;;;;22.11;26.28;95311.72;10488070;28;1501;-72
2022/04/02 22:36:46;;;;;;;;;;;;;;;22.07;26.34;95311.50;10465433;28;1738;-73
2022/04/02 22:41:46;;;;;;;;;;;;;;;22.12;26.24;95321.97;10455745;28;1968;-73
2022/04/02 22:46:47;;;;;;;;;;;;;;;22.12;26.01;95323.84;10492163;28;1557;-73
2022/04/02 22:51:48;;;;;;;;;;;;;;;22.12;26.25;95321.19;10491326;28;1327;-74
2022/04/02 22:56:49;;;;;;;;;;;;;;;22.13;26.10;95328.84;10501449;28;1810;-75
2022/04/02 23:01:50;;;;;;;;;;;;;;;22.09;25.95;95333.13;10497308;28;1913;-74
2022/04/02 23:06:51;;;;;;;;;;;;;;;22.11;26.18;95335.47;10487435;28;1420;-75
2022/04/02 23:11:52;;;;;;;;;;;;;;;22.12;25.79;95323.84;10483658;28;1472;-73
2022/04/02 23:16:53;;;;;;;;;;;;;;;22.09;26.20;95338.38;10490315;28;1398;-73
2022/04/02 23:21:53;;;;;;;;;;;;;;;22.09;25.92;95341.03;10503828;28;1969;-73
2022/04/02 23:26:54;;;;;;;;;;;;;;;22.09;25.74;95343.66;10497892;28;1420;-72
2022/04/02 23:31:54;;;;;;;;;;;;;;;22.08;25.69;95350.03;10498299;28;1522;-70
2022/04/02 23:36:54;;;;;;;;;;;;;;;22.06;25.56;95344.28;10521263;28;1521;-74
2022/04/02 23:41:55;;;;;;;;;;;;;;;22.05;25.83;95353.25;10517264;28;1917;-73
2022/04/02 23:46:55;;;;;;;;;;;;;;;22.04;26.05;95351.69;10471681;28;1812;-73
2022/04/02 23:51:57;;;;;;;;;;;;;;;22.02;25.81;95351.22;10502922;28;1833;-73
2022/04/02 23:56:57;;;;;;;;;;;;;;;22.00;26.01;95350.72;10500777;28;1758;-73
